Time;durP1;ratioP1;P1;durP2;ratioP2;P2;SDS_P1;SDS_P2;PMS_P1;PMS_P2;Temp;Humidity;BMP_temperature;BMP_pressure;BME280_temperature;BME280_humidity;BME280_pressure;Samples;Min_cycle;Max_cycle;Signal;HPM_P1;HPM_P2
2023/01/19 00:00:31;;;;;;;10.10;2.92;;;4.10;99.90;;;;;;5072396;28;20064;-36
2023/01/19 00:02:57;;;;;;;17.25;2.63;;;4.10;99.90;;;;;;5073378;28;20499;-38
2023/01/19 00:05:22;;;;;;;9.05;3.03;;;4.10;99.90;;;;;;5072626;28;20024;-43
2023/01/19 00:07:48;;;;;;;8.63;2.70;;;4.20;99.90;;;;;;5071809;28;20021;-38
2023/01/19 00:10:13;;;;;;;12.70;2.58;;;4.20;99.90;;;;;;5068735;28;20708;-38
2023/01/19 00:12:39;;;;;;;4.88;2.80;;;4.20;99.90;;;;;;5069448;28;20044;-39
2023/01/19 00:15:05;;;;;;;9.63;3.20;;;4.20;99.90;;;;;;5072730;28;20029;-39
2023/01/19 00:17:31;;;;;;;9.27;3.03;;;4.20;99.90;;;;;;5067312;28;20029;-38
2023/01/19 00:19:56;;;;;;;6.47;3.50;;;4.20;99.90;;;;;;5067289;28;20044;-39
2023/01/19 00:22:22;;;;;;;14.65;3.30;;;4.30;99.90;;;;;;5072634;28;20052;-42
2023/01/19 00:24:49;;;;;;;10.55;2.80;;;4.30;99.90;;;;;;5072092;28;20037;-41
2023/01/19 00:27:14;;;;;;;8.93;2.70;;;4.30;99.90;;;;;;5070548;28;20027;-40
2023/01/19 00:29:40;;;;;;;5.07;1.30;;;4.20;99.90;;;;;;5073305;28;20548;-41
2023/01/19 00:32:05;;;;;;;5.78;2.20;;;4.20;99.90;;;;;;5071954;28;20051;-40
2023/01/19 00:34:35;;;;;;;7.55;2.15;;;4.20;99.90;;;;;;5072962;28;20040;-35
2023/01/19 00:37:10;;;;;;;0.90;0.88;;;4.20;99.90;;;;;;5066692;28;20531;-37
2023/01/19 00:39:36;;;;;;;2.67;1.67;;;4.20;99.90;;;;;;5074093;28;20057;-35
2023/01/19 00:44:46;;;;;;;7.68;1.77;;;4.30;99.90;;;;;;5074347;28;20031;-38
2023/01/19 00:47:12;;;;;;;6.78;1.67;;;4.30;99.90;;;;;;5073875;28;20024;-36
2023/01/19 00:49:37;;;;;;;3.97;1.17;;;4.30;99.90;;;;;;5071514;28;20512;-35
2023/01/19 00:52:03;;;;;;;3.63;1.38;;;4.30;99.90;;;;;;5072784;28;20516;-37
2023/01/19 00:54:29;;;;;;;5.40;0.88;;;4.20;99.90;;;;;;5073815;28;20024;-38
2023/01/19 00:56:54;;;;;;;1.08;0.35;;;4.20;99.90;;;;;;5072751;28;20013;-39
2023/01/19 00:59:20;;;;;;;3.92;0.55;;;4.10;99.90;;;;;;5071106;28;20025;-37
2023/01/19 01:01:46;;;;;;;1.08;0.20;;;4.00;99.90;;;;;;5065866;28;20020;-40
2023/01/19 01:04:13;;;;;;;0.98;0.17;;;3.90;99.90;;;;;;5064491;28;20085;-36
2023/01/19 01:06:38;;;;;;;2.95;0.40;;;3.80;99.90;;;;;;5071366;28;20074;-37
2023/01/19 01:09:10;;;;;;;7.28;0.63;;;3.70;99.90;;;;;;5071877;28;20441;-33
2023/01/19 01:11:43;;;;;;;1.45;0.68;;;3.70;99.90;;;;;;5071853;28;20024;-39
2023/01/19 01:14:10;;;;;;;0.30;0.22;;;3.70;99.90;;;;;;5072603;28;20495;-37
2023/01/19 01:16:36;;;;;;;1.95;0.50;;;3.80;99.90;;;;;;5073358;28;20550;-35
2023/01/19 01:19:01;;;;;;;4.07;0.50;;;3.90;99.90;;;;;;5073452;28;20020;-38
2023/01/19 01:21:27;;;;;;;1.60;0.28;;;3.90;99.90;;;;;;5070140;28;20039;-39
2023/01/19 01:23:53;;;;;;;2.30;0.28;;;4.00;99.90;;;;;;5073343;28;20427;-35
2023/01/19 01:26:18;;;;;;;4.95;0.32;;;4.00;99.90;;;;;;5071223;28;20059;-32
2023/01/19 01:28:44;;;;;;;5.25;0.20;;;4.10;99.90;;;;;;5073220;28;20029;-37
2023/01/19 01:31:09;;;;;;;0.93;0.28;;;4.10;99.90;;;;;;5073237;28;20028;-36
2023/01/19 01:33:35;;;;;;;1.50;0.28;;;4.10;99.90;;;;;;5073003;28;20091;-35
2023/01/19 01:36:00;;;;;;;0.75;0.60;;;4.20;99.90;;;;;;5072085;28;20020;-40
2023/01/19 01:38:26;;;;;;;2.90;0.50;;;4.30;99.90;;;;;;5071146;28;20393;-36
2023/01/19 01:40:52;;;;;;;2.38;0.43;;;4.30;99.90;;;;;;5073111;28;20028;-37
2023/01/19 01:43:19;;;;;;;3.00;0.35;;;4.30;99.90;;;;;;5071624;28;20383;-34
2023/01/19 01:45:45;;;;;;;0.35;0.22;;;4.40;99.90;;;;;;5070990;28;20029;-37
2023/01/19 01:48:16;;;;;;;1.75;0.43;;;4.40;99.90;;;;;;5071982;28;20040;-35
2023/01/19 01:53:37;;;;;;;7.13;0.60;;;4.40;99.90;;;;;;5071175;28;20047;-37
2023/01/19 01:56:08;;;;;;;5.60;1.05;;;4.30;99.90;;;;;;5071926;28;20024;-36
2023/01/19 01:58:36;;;;;;;5.97;0.65;;;4.20;99.90;;;;;;5072077;28;20508;-33
2023/01/19 02:03:47;;;;;;;5.75;0.50;;;4.10;99.90;;;;;;5071481;28;20024;-35
2023/01/19 02:06:13;;;;;;;3.35;0.43;;;4.00;99.90;;;;;;5071804;28;20025;-40
2023/01/19 02:14:26;;;;;;;0.20;0.10;;;3.90;99.90;;;;;;5052556;28;20085;-37
2023/01/19 02:16:51;;;;;;;3.20;0.20;;;3.90;99.90;;;;;;5073604;28;20392;-40
2023/01/19 02:19:29;;;;;;;3.10;1.15;;;3.80;99.90;;;;;;5057985;28;20032;-38
2023/01/19 02:22:17;;;;;;;4.70;0.30;;;3.70;99.90;;;;;;5072756;28;20044;-38
2023/01/19 02:24:43;;;;;;;2.70;0.40;;;3.60;99.90;;;;;;5072584;28;20463;-40
2023/01/19 02:27:11;;;;;;;4.20;0.30;;;3.60;99.90;;;;;;5071871;28;20044;-38
2023/01/19 02:29:37;;;;;;;1.80;0.28;;;3.70;99.90;;;;;;5071324;28;20536;-35
2023/01/19 02:32:04;;;;;;;2.22;0.45;;;3.70;99.90;;;;;;5071300;28;20055;-35
2023/01/19 02:34:31;;;;;;;5.10;0.32;;;3.60;99.90;;;;;;5069723;28;20024;-40
2023/01/19 02:37:05;;;;;;;1.23;0.30;;;3.60;99.90;;;;;;5071456;28;20048;-39
2023/01/19 02:39:35;;;;;;;3.88;0.50;;;3.60;99.90;;;;;;5073556;28;20112;-35
2023/01/19 02:42:06;;;;;;;2.55;0.82;;;3.60;99.90;;;;;;5068301;28;20085;-39
2023/01/19 02:44:33;;;;;;;1.13;0.47;;;3.70;99.90;;;;;;5075282;28;20155;-35
2023/01/19 02:46:59;;;;;;;0.13;0.13;;;3.60;99.90;;;;;;5076322;28;20028;-37
2023/01/19 02:49:28;;;;;;;3.55;0.82;;;3.50;99.90;;;;;;5075040;28;20121;-36
2023/01/19 02:51:54;;;;;;;0.68;0.40;;;3.50;99.90;;;;;;5076247;28;20480;-34
2023/01/19 02:54:26;;;;;;;0.90;0.32;;;3.40;99.90;;;;;;5075447;28;20196;-39
2023/01/19 02:57:12;;;;;;;3.05;0.20;;;3.50;99.90;;;;;;5055827;28;20037;-38
2023/01/19 02:59:58;;;;;;;0.30;0.22;;;3.40;99.90;;;;;;5073515;28;20033;-36
2023/01/19 03:02:29;;;;;;;3.13;0.22;;;3.40;99.90;;;;;;5075209;28;20032;-37
2023/01/19 03:05:21;;;;;;;1.10;0.40;;;3.50;99.90;;;;;;5073649;28;20465;-40
2023/01/19 03:08:05;;;;;;;2.38;0.30;;;3.50;99.90;;;;;;5061630;28;20111;-32
2023/01/19 03:10:59;;;;;;;6.70;0.55;;;3.50;99.90;;;;;;5073373;28;20037;-37
2023/01/19 03:13:43;;;;;;;2.25;0.77;;;3.40;99.90;;;;;;5072980;28;20078;-38
2023/01/19 03:16:28;;;;;;;4.18;0.40;;;3.40;99.90;;;;;;5076002;28;20033;-33
2023/01/19 03:19:19;;;;;;;1.73;0.40;;;3.50;99.90;;;;;;5074067;28;20472;-38
2023/01/19 03:21:48;;;;;;;2.80;0.22;;;3.50;99.90;;;;;;5075144;28;20389;-39
2023/01/19 03:24:16;;;;;;;4.57;1.20;;;3.50;99.90;;;;;;5074079;28;20071;-37
2023/01/19 03:26:46;;;;;;;2.83;0.30;;;3.50;99.90;;;;;;5075661;28;20111;-33
2023/01/19 03:29:13;;;;;;;4.97;0.25;;;3.50;99.90;;;;;;5073872;28;20033;-45
2023/01/19 03:31:42;;;;;;;4.00;0.65;;;3.50;99.90;;;;;;5075538;28;20029;-39
2023/01/19 03:34:12;;;;;;;1.17;0.50;;;3.60;99.90;;;;;;5072859;28;20431;-44
2023/01/19 03:36:49;;;;;;;1.58;0.30;;;3.60;99.90;;;;;;5074255;28;20025;-46
2023/01/19 03:39:20;;;;;;;0.35;0.35;;;3.60;99.90;;;;;;5072582;28;20013;-51
2023/01/19 03:41:48;;;;;;;0.50;0.30;;;3.50;99.90;;;;;;5074780;28;20031;-45
2023/01/19 03:44:14;;;;;;;;;;;3.50;99.90;;;;;;5057419;28;20072;-41
2023/01/19 03:46:40;;;;;;;2.92;0.22;;;3.50;99.90;;;;;;5055291;28;19904;-41
2023/01/19 03:49:07;;;;;;;3.50;0.28;;;3.50;99.90;;;;;;5061933;28;20446;-41
2023/01/19 03:51:37;;;;;;;1.92;0.47;;;3.50;99.90;;;;;;5075435;28;20020;-40
2023/01/19 03:54:08;;;;;;;2.38;0.20;;;3.50;99.90;;;;;;5075044;28;20032;-34
2023/01/19 03:56:34;;;;;;;6.88;0.17;;;3.40;99.90;;;;;;5074298;28;20032;-39
2023/01/19 03:59:00;;;;;;;5.85;0.32;;;3.40;99.90;;;;;;5074089;28;20492;-39
2023/01/19 04:01:25;;;;;;;0.00;0.00;;;3.30;99.90;;;;;;5074949;28;20016;-34
2023/01/19 04:03:52;;;;;;;0.30;0.20;;;3.30;99.90;;;;;;5074072;28;20052;-37
2023/01/19 04:06:19;;;;;;;0.40;0.40;;;3.30;99.90;;;;;;5074680;28;20481;-36
2023/01/19 04:08:47;;;;;;;2.30;0.43;;;3.30;99.90;;;;;;5073915;28;20020;-36
2023/01/19 04:11:13;;;;;;;;;;;3.20;99.90;;;;;;5074151;28;20027;-36
2023/01/19 04:13:38;;;;;;;3.60;0.25;;;3.20;99.90;;;;;;5073929;28;19994;-36
2023/01/19 04:16:05;;;;;;;2.42;0.50;;;3.30;99.90;;;;;;5073236;28;20025;-36
2023/01/19 04:18:32;;;;;;;0.10;0.10;;;3.30;99.90;;;;;;5072961;28;20464;-36
2023/01/19 04:21:03;;;;;;;0.47;0.10;;;3.30;99.90;;;;;;5074526;28;20012;-37
2023/01/19 04:23:32;;;;;;;6.25;0.80;;;3.30;99.90;;;;;;5074628;28;20473;-36
2023/01/19 04:26:00;;;;;;;0.65;0.20;;;3.40;99.90;;;;;;5072800;28;20020;-33
2023/01/19 04:28:26;;;;;;;3.35;1.27;;;3.40;99.90;;;;;;5072877;28;20485;-39
2023/01/19 04:30:52;;;;;;;4.50;0.32;;;3.40;99.90;;;;;;5073356;28;20056;-37
2023/01/19 04:33:18;;;;;;;1.90;0.50;;;3.40;99.90;;;;;;5073633;28;20444;-35
2023/01/19 04:35:45;;;;;;;6.53;0.82;;;3.40;99.90;;;;;;5074165;28;20044;-36
2023/01/19 04:38:10;;;;;;;2.83;0.93;;;3.40;99.90;;;;;;5073838;28;20024;-32
2023/01/19 04:40:36;;;;;;;2.10;0.10;;;3.40;99.90;;;;;;5070608;28;20078;-37
2023/01/19 04:43:01;;;;;;;2.70;0.30;;;3.40;99.90;;;;;;5073239;28;20509;-33
2023/01/19 04:45:27;;;;;;;1.48;0.93;;;3.50;99.90;;;;;;5074093;28;20236;-38
2023/01/19 04:47:53;;;;;;;9.20;0.43;;;3.40;99.90;;;;;;5073323;28;20063;-34
2023/01/19 04:50:18;;;;;;;2.55;0.70;;;3.40;99.90;;;;;;5073935;28;20072;-35
2023/01/19 04:52:44;;;;;;;1.25;0.45;;;3.40;99.90;;;;;;5074237;28;20503;-31
2023/01/19 04:55:10;;;;;;;8.50;0.40;;;3.50;99.90;;;;;;5071817;28;20039;-36
2023/01/19 04:57:39;;;;;;;5.15;0.50;;;3.50;99.90;;;;;;5070125;28;20384;-37
2023/01/19 05:00:05;;;;;;;1.42;0.57;;;3.50;99.90;;;;;;5053860;28;20017;-33
2023/01/19 05:02:31;;;;;;;9.18;0.98;;;3.50;99.90;;;;;;5057380;28;20430;-39
2023/01/19 05:04:57;;;;;;;2.15;0.45;;;3.60;99.90;;;;;;5073329;28;20103;-34
2023/01/19 05:07:22;;;;;;;5.38;0.40;;;3.60;99.90;;;;;;5073698;28;20107;-36
2023/01/19 05:09:48;;;;;;;4.47;0.57;;;3.60;99.90;;;;;;5072739;28;20391;-34
2023/01/19 05:12:14;;;;;;;2.70;0.63;;;3.60;99.90;;;;;;5072545;28;20036;-37
2023/01/19 05:14:39;;;;;;;3.33;0.77;;;3.60;99.90;;;;;;5073554;28;20020;-34
2023/01/19 05:17:05;;;;;;;1.75;0.88;;;3.60;99.90;;;;;;5073804;28;20195;-40
2023/01/19 05:19:31;;;;;;;18.52;2.05;;;3.70;99.90;;;;;;5070639;28;20021;-32
2023/01/19 05:21:57;;;;;;;3.58;0.35;;;3.70;99.90;;;;;;5071045;28;20031;-38
2023/01/19 05:24:22;;;;;;;5.78;0.80;;;3.70;99.90;;;;;;5073463;28;20107;-38
2023/01/19 05:26:48;;;;;;;1.10;0.40;;;3.70;99.90;;;;;;5072519;28;20029;-33
2023/01/19 05:29:14;;;;;;;11.85;1.13;;;3.80;99.90;;;;;;5071765;28;20024;-36
2023/01/19 05:31:39;;;;;;;2.88;0.68;;;3.80;99.90;;;;;;5072020;28;20027;-33
2023/01/19 05:34:05;;;;;;;13.95;1.23;;;3.90;99.90;;;;;;5070841;28;20082;-34
2023/01/19 05:36:31;;;;;;;11.70;0.93;;;3.90;99.90;;;;;;5070095;28;20078;-30
2023/01/19 05:38:57;;;;;;;6.47;0.90;;;4.00;99.90;;;;;;5071028;28;20473;-35
2023/01/19 05:41:22;;;;;;;9.90;0.93;;;4.00;99.90;;;;;;5069381;28;20040;-35
2023/01/19 05:43:48;;;;;;;3.13;0.57;;;4.00;99.90;;;;;;5071774;28;20013;-49
2023/01/19 05:46:14;;;;;;;5.68;0.70;;;4.10;99.90;;;;;;5071245;28;20021;-46
2023/01/19 05:48:39;;;;;;;5.70;1.10;;;4.10;99.90;;;;;;5069478;28;20500;-47
2023/01/19 05:51:06;;;;;;;5.18;0.70;;;4.00;99.90;;;;;;5070920;28;20063;-47
2023/01/19 05:53:31;;;;;;;11.15;0.70;;;4.00;99.90;;;;;;5071358;28;20046;-39
2023/01/19 05:56:07;;;;;;;11.18;1.30;;;4.00;99.90;;;;;;5070870;28;20123;-37
2023/01/19 05:58:34;;;;;;;2.60;0.85;;;4.00;99.90;;;;;;5065764;28;20020;-40
2023/01/19 06:01:04;;;;;;;5.18;0.90;;;4.00;99.90;;;;;;5072380;28;20019;-38
2023/01/19 06:03:34;;;;;;;5.65;1.65;;;3.90;99.90;;;;;;5070998;28;20024;-37
2023/01/19 06:06:00;;;;;;;13.95;1.50;;;3.80;99.90;;;;;;5071774;28;20017;-34
2023/01/19 06:08:26;;;;;;;12.07;1.92;;;3.80;99.90;;;;;;5070478;28;20086;-30
2023/01/19 06:10:52;;;;;;;14.60;1.45;;;3.70;99.90;;;;;;5071811;28;20476;-36
2023/01/19 06:13:17;;;;;;;10.68;1.05;;;3.70;99.90;;;;;;5069396;28;20029;-31
2023/01/19 06:15:43;;;;;;;9.45;0.65;;;3.80;99.90;;;;;;5070743;28;20465;-35
2023/01/19 06:18:15;;;;;;;8.68;1.15;;;3.80;99.90;;;;;;5071767;28;20029;-35
2023/01/19 06:20:41;;;;;;;11.05;1.05;;;3.90;99.90;;;;;;5071312;28;20017;-34
2023/01/19 06:23:06;;;;;;;7.63;1.05;;;3.90;99.90;;;;;;5070062;28;20032;-37
2023/01/19 06:25:32;;;;;;;4.93;1.27;;;3.80;99.90;;;;;;5071493;28;20107;-35
2023/01/19 06:30:42;;;;;;;12.60;1.52;;;3.90;99.90;;;;;;5071897;28;20039;-38
2023/01/19 06:33:08;;;;;;;5.55;0.68;;;4.00;99.90;;;;;;5071108;28;20021;-36
2023/01/19 06:35:34;;;;;;;11.07;1.25;;;4.00;99.90;;;;;;5052416;28;20063;-36
2023/01/19 06:38:00;;;;;;;13.80;1.65;;;4.00;99.90;;;;;;5052744;28;20381;-35
2023/01/19 06:40:25;;;;;;;16.60;1.98;;;4.00;99.90;;;;;;5069251;28;20078;-40
2023/01/19 06:42:51;;;;;;;10.48;0.95;;;4.00;99.90;;;;;;5070923;28;20043;-36
2023/01/19 06:45:20;;;;;;;6.63;1.08;;;4.00;99.90;;;;;;5072655;28;20033;-35
2023/01/19 06:47:48;;;;;;;7.72;0.88;;;4.00;99.90;;;;;;5071464;28;20103;-36
2023/01/19 06:50:14;;;;;;;9.77;1.30;;;4.00;99.90;;;;;;5070747;28;20489;-36
2023/01/19 06:52:41;;;;;;;6.38;1.25;;;4.00;99.90;;;;;;5072617;28;20468;-38
2023/01/19 06:55:09;;;;;;;20.65;2.42;;;4.00;99.90;;;;;;5071373;28;20031;-36
2023/01/19 06:57:37;;;;;;;9.27;1.48;;;3.90;99.90;;;;;;5071405;28;20410;-36
2023/01/19 07:00:07;;;;;;;11.05;2.08;;;3.90;99.90;;;;;;5071801;28;20017;-38
2023/01/19 07:02:39;;;;;;;4.22;1.17;;;3.90;99.90;;;;;;5071047;28;20028;-37
2023/01/19 07:05:05;;;;;;;11.32;1.17;;;3.80;99.90;;;;;;5070849;28;20499;-37
2023/01/19 07:07:31;;;;;;;5.43;1.08;;;3.80;99.90;;;;;;5052681;28;20033;-36
2023/01/19 07:09:57;;;;;;;13.02;1.52;;;3.70;99.90;;;;;;5067999;28;20021;-35
2023/01/19 07:12:23;;;;;;;9.20;1.45;;;3.70;99.90;;;;;;5070562;28;20020;-38
2023/01/19 07:14:49;;;;;;;16.08;2.28;;;3.70;99.90;;;;;;5072267;28;20442;-41
2023/01/19 07:17:14;;;;;;;10.43;1.52;;;3.70;99.90;;;;;;5070957;28;20012;-33
2023/01/19 07:19:40;;;;;;;4.45;1.00;;;3.60;99.90;;;;;;5072039;28;20157;-36
2023/01/19 07:22:06;;;;;;;6.78;0.98;;;3.60;99.90;;;;;;5070868;28;20031;-36
2023/01/19 07:24:33;;;;;;;3.40;1.65;;;3.60;99.90;;;;;;5072170;28;20395;-36
2023/01/19 07:27:01;;;;;;;11.90;1.55;;;3.60;99.90;;;;;;5074813;28;20112;-37
2023/01/19 07:29:26;;;;;;;10.90;1.70;;;3.50;99.90;;;;;;5075502;28;20028;-39
2023/01/19 07:31:53;;;;;;;11.95;3.15;;;3.50;99.90;;;;;;5074782;28;20031;-37
2023/01/19 07:34:20;;;;;;;13.55;1.58;;;3.50;99.90;;;;;;5075603;28;20032;-38
2023/01/19 07:36:45;;;;;;;13.15;1.38;;;3.50;99.90;;;;;;5073983;28;20091;-35
2023/01/19 07:39:11;;;;;;;10.23;2.00;;;3.40;99.90;;;;;;5072868;28;20433;-37
2023/01/19 07:41:37;;;;;;;14.40;1.73;;;3.40;99.90;;;;;;5072723;28;20017;-37
2023/01/19 07:44:02;;;;;;;12.82;1.13;;;3.30;99.90;;;;;;5075246;28;20058;-36
2023/01/19 07:46:28;;;;;;;13.90;1.80;;;3.30;99.90;;;;;;5075304;28;20075;-35
2023/01/19 07:48:54;;;;;;;20.08;2.05;;;3.30;99.90;;;;;;5074180;28;20041;-38
2023/01/19 07:51:19;;;;;;;6.28;1.10;;;3.30;99.90;;;;;;5066185;28;20036;-36
2023/01/19 07:53:45;;;;;;;9.00;1.20;;;3.30;99.90;;;;;;5069234;28;20040;-35
2023/01/19 07:56:11;;;;;;;9.32;1.25;;;3.30;99.90;;;;;;5072845;28;20112;-33
2023/01/19 07:58:38;;;;;;;17.65;1.48;;;3.30;99.90;;;;;;5074973;28;20035;-35
2023/01/19 08:01:11;;;;;;;11.93;1.60;;;3.30;99.90;;;;;;5073322;28;20495;-36
2023/01/19 08:03:37;;;;;;;13.90;1.42;;;3.30;99.90;;;;;;5073978;28;20028;-34
2023/01/19 08:06:04;;;;;;;9.95;1.70;;;3.30;99.90;;;;;;5073968;28;20032;-38
2023/01/19 08:08:33;;;;;;;10.75;1.70;;;3.30;99.90;;;;;;5080938;28;20435;-36
2023/01/19 08:10:59;;;;;;;8.85;2.60;;;3.30;99.90;;;;;;5072730;28;20024;-35
2023/01/19 08:13:25;;;;;;;14.80;1.15;;;3.30;99.90;;;;;;5073929;28;20472;-34
2023/01/19 08:15:53;;;;;;;5.15;1.05;;;3.30;99.90;;;;;;5070478;28;20027;-40
2023/01/19 08:18:19;;;;;;;4.43;0.70;;;3.30;99.90;;;;;;5073914;28;20020;-42
2023/01/19 08:20:45;;;;;;;7.40;1.17;;;3.30;99.90;;;;;;5070068;28;20020;-41
2023/01/19 08:23:11;;;;;;;11.52;1.50;;;3.30;99.90;;;;;;5055022;28;20040;-49
2023/01/19 08:25:43;;;;;;;8.32;1.63;;;3.40;99.90;;;;;;5068095;28;20541;-39
2023/01/19 08:28:13;;;;;;;2.75;0.93;;;3.30;99.90;;;;;;5082136;28;20041;-45
2023/01/19 08:30:40;;;;;;;7.60;1.08;;;3.40;99.90;;;;;;5070349;28;20025;-42
2023/01/19 08:33:08;;;;;;;10.70;1.40;;;3.50;99.90;;;;;;5074002;28;20385;-41
2023/01/19 08:35:35;;;;;;;;;;;3.60;99.90;;;;;;5069871;28;20029;-41
2023/01/19 08:38:02;;;;;;;9.05;0.93;;;3.60;99.90;;;;;;5071363;28;19920;-33
2023/01/19 08:40:29;;;;;;;5.18;0.88;;;3.60;99.90;;;;;;5074529;28;20453;-34
2023/01/19 08:43:02;;;;;;;3.42;0.90;;;3.70;99.90;;;;;;5072882;28;20524;-49
2023/01/19 08:45:29;;;;;;;7.18;1.08;;;3.80;99.90;;;;;;5073540;28;20445;-48
2023/01/19 08:47:58;;;;;;;8.80;1.23;;;4.00;99.90;;;;;;5071169;28;20021;-42
2023/01/19 08:50:33;;;;;;;3.45;1.15;;;4.10;99.90;;;;;;5070197;28;20048;-43
2023/01/19 08:53:00;;;;;;;4.95;0.70;;;4.20;99.90;;;;;;5062908;28;20036;-40
2023/01/19 08:55:28;;;;;;;12.10;0.88;;;4.20;99.90;;;;;;5073829;28;20044;-41
2023/01/19 08:57:56;;;;;;;4.38;0.20;;;4.20;99.90;;;;;;5070462;28;20550;-42
2023/01/19 09:00:22;;;;;;;2.78;0.70;;;4.30;99.90;;;;;;5071478;28;20019;-41
2023/01/19 09:02:48;;;;;;;13.45;1.10;;;4.40;99.90;;;;;;5069379;28;20100;-39
2023/01/19 09:05:13;;;;;;;6.57;0.82;;;4.40;99.90;;;;;;5066873;28;20315;-41
2023/01/19 09:07:40;;;;;;;4.57;0.95;;;4.40;99.90;;;;;;5067246;28;20033;-41
2023/01/19 09:12:51;;;;;;;3.78;1.17;;;4.50;99.90;;;;;;5068394;28;20062;-41
2023/01/19 09:15:16;;;;;;;4.95;0.80;;;4.50;99.90;;;;;;5072940;28;20029;-33
2023/01/19 09:17:42;;;;;;;5.82;0.52;;;4.60;99.90;;;;;;5068907;28;20032;-34
2023/01/19 09:20:08;;;;;;;2.53;0.75;;;4.60;99.90;;;;;;5066983;28;20027;-33
2023/01/19 09:22:34;;;;;;;10.45;1.17;;;4.80;99.90;;;;;;5071079;28;20051;-37
2023/01/19 09:25:00;;;;;;;6.28;1.00;;;4.80;99.90;;;;;;5070244;28;20020;-38
2023/01/19 09:27:25;;;;;;;8.38;1.20;;;4.80;99.90;;;;;;5071978;28;20469;-37
2023/01/19 09:29:52;;;;;;;5.20;0.90;;;4.80;99.90;;;;;;5068276;28;20032;-38
2023/01/19 09:32:20;;;;;;;5.50;1.08;;;4.90;99.90;;;;;;5069081;28;20027;-39
2023/01/19 09:34:46;;;;;;;8.63;1.13;;;4.90;99.90;;;;;;5070986;28;20025;-39
2023/01/19 09:37:12;;;;;;;5.20;0.60;;;4.90;99.90;;;;;;5069498;28;20020;-38
2023/01/19 09:39:37;;;;;;;8.93;0.82;;;4.90;99.90;;;;;;5070735;28;20472;-37
2023/01/19 09:42:23;;;;;;;4.78;1.08;;;4.90;99.90;;;;;;5071566;28;20021;-33
2023/01/19 09:44:50;;;;;;;9.63;1.08;;;4.90;99.90;;;;;;5070968;28;20028;-40
2023/01/19 09:47:23;;;;;;;5.07;1.23;;;5.00;99.90;;;;;;5067506;28;20044;-40
2023/01/19 09:49:57;;;;;;;9.63;1.23;;;5.00;99.90;;;;;;5069732;28;20041;-40
2023/01/19 09:52:23;;;;;;;12.18;1.70;;;5.10;99.90;;;;;;5070320;28;20116;-41
2023/01/19 09:54:55;;;;;;;5.47;1.25;;;5.10;99.90;;;;;;5071657;28;20116;-39
2023/01/19 09:57:23;;;;;;;8.10;1.00;;;5.20;99.90;;;;;;5071342;28;20074;-40
2023/01/19 09:59:50;;;;;;;6.32;0.93;;;5.20;99.90;;;;;;5070121;28;20031;-41
2023/01/19 10:02:46;;;;;;;3.95;1.15;;;5.20;99.90;;;;;;5070144;28;20107;-40
2023/01/19 10:05:20;;;;;;;13.55;0.93;;;5.20;99.90;;;;;;5070059;28;20025;-34
2023/01/19 10:08:10;;;;;;;10.10;0.93;;;5.20;99.90;;;;;;5068956;28;20036;-34
2023/01/19 10:10:39;;;;;;;1.55;0.93;;;5.30;99.90;;;;;;5064207;28;20028;-46
2023/01/19 10:13:16;;;;;;;6.53;0.98;;;5.20;99.90;;;;;;5072196;28;20020;-40
2023/01/19 10:15:56;;;;;;;2.88;0.60;;;5.30;99.90;;;;;;5071191;28;20030;-47
2023/01/19 10:18:50;;;;;;;11.70;1.35;;;5.40;99.90;;;;;;5072055;28;20036;-40
2023/01/19 10:21:30;;;;;;;12.32;1.48;;;5.40;99.90;;;;;;5072032;28;20535;-40
2023/01/19 10:24:12;;;;;;;4.90;1.13;;;5.50;99.90;;;;;;5070564;28;20052;-38
2023/01/19 10:26:48;;;;;;;4.18;1.13;;;5.50;99.90;;;;;;5072629;28;20052;-39
2023/01/19 10:29:23;;;;;;;4.75;0.95;;;5.50;99.90;;;;;;5071692;28;20058;-40
2023/01/19 10:31:51;;;;;;;3.58;0.98;;;5.50;99.90;;;;;;5069773;28;20103;-41
2023/01/19 10:34:19;;;;;;;;;;;5.70;99.90;;;;;;5072944;28;20388;-40
2023/01/19 10:36:48;;;;;;;1.45;0.60;;;5.70;99.90;;;;;;5072137;28;19931;-42
2023/01/19 10:39:17;;;;;;;3.63;0.93;;;5.70;99.90;;;;;;5069282;28;20066;-41
2023/01/19 10:41:49;;;;;;;1.92;0.57;;;5.80;99.90;;;;;;5072526;28;20025;-40
2023/01/19 10:44:33;;;;;;;7.53;1.00;;;5.80;99.90;;;;;;5056020;28;20104;-40
2023/01/19 10:47:01;;;;;;;4.53;0.80;;;5.80;99.90;;;;;;5069803;28;20035;-41
2023/01/19 10:49:37;;;;;;;2.38;0.70;;;5.90;99.90;;;;;;5071428;28;20063;-40
2023/01/19 10:52:06;;;;;;;7.93;0.95;;;5.90;99.90;;;;;;5072396;28;20032;-41
2023/01/19 10:54:35;;;;;;;10.27;0.90;;;6.00;99.90;;;;;;5069901;28;20119;-42
2023/01/19 10:57:04;;;;;;;10.00;0.93;;;6.00;99.90;;;;;;5071267;28;20160;-41
2023/01/19 10:59:35;;;;;;;6.00;1.45;;;5.90;99.90;;;;;;5073166;28;20029;-41
2023/01/19 11:02:25;;;;;;;5.60;1.08;;;5.90;99.90;;;;;;5073141;28;20025;-40
2023/01/19 11:04:53;;;;;;;14.75;1.52;;;5.90;99.90;;;;;;5074164;28;20067;-42
2023/01/19 11:07:29;;;;;;;6.85;0.63;;;6.00;99.90;;;;;;5073383;28;20044;-41
2023/01/19 11:10:16;;;;;;;3.75;0.60;;;6.10;99.90;;;;;;5074628;28;20059;-42
2023/01/19 11:12:52;;;;;;;10.25;1.25;;;6.20;99.90;;;;;;5074601;28;20033;-40
2023/01/19 11:15:24;;;;;;;10.32;0.95;;;6.20;99.90;;;;;;5074823;28;20054;-40
2023/01/19 11:17:51;;;;;;;5.95;0.70;;;6.20;99.90;;;;;;5076052;28;20457;-41
2023/01/19 11:20:27;;;;;;;11.95;1.48;;;6.10;99.90;;;;;;5073090;28;20491;-40
2023/01/19 11:23:05;;;;;;;7.47;0.82;;;6.10;99.90;;;;;;5076153;28;20472;-37
2023/01/19 11:25:33;;;;;;;2.40;0.80;;;6.10;99.90;;;;;;5074696;28;20028;-36
2023/01/19 11:27:59;;;;;;;;;;;6.20;99.90;;;;;;5072774;28;20497;-37
2023/01/19 11:30:26;;;;;;;1.77;0.60;;;6.20;99.90;;;;;;5072359;28;20000;-36
2023/01/19 11:32:52;;;;;;;5.15;0.60;;;6.20;99.90;;;;;;5074650;28;20472;-38
2023/01/19 11:35:38;;;;;;;0.47;0.20;;;6.30;99.90;;;;;;5074657;28;20024;-36
2023/01/19 11:38:21;;;;;;;1.35;0.60;;;6.30;99.90;;;;;;5070582;28;20029;-37
2023/01/19 11:40:55;;;;;;;3.10;0.98;;;6.30;99.90;;;;;;5074020;28;20070;-35
2023/01/19 11:43:23;;;;;;;3.92;0.38;;;6.30;99.90;;;;;;5072307;28;20500;-37
2023/01/19 11:45:50;;;;;;;5.63;0.68;;;6.40;99.90;;;;;;5073261;28;20031;-39
2023/01/19 11:48:30;;;;;;;2.78;0.80;;;6.50;99.90;;;;;;5073241;28;20048;-39
2023/01/19 11:50:58;;;;;;;3.83;0.40;;;6.40;99.90;;;;;;5073106;28;21103;-40
2023/01/19 11:53:32;;;;;;;11.07;0.60;;;6.20;99.90;;;;;;5074725;28;20029;-41
2023/01/19 11:56:03;;;;;;;8.15;0.68;;;6.30;99.90;;;;;;5073797;28;20118;-42
2023/01/19 11:58:30;;;;;;;1.42;0.73;;;6.30;99.90;;;;;;5072465;28;20063;-41
2023/01/19 12:01:05;;;;;;;1.33;0.38;;;6.20;99.90;;;;;;5071180;28;20469;-39
2023/01/19 12:03:31;;;;;;;2.47;0.77;;;6.20;99.90;;;;;;5073016;28;20533;-40
2023/01/19 12:06:07;;;;;;;1.67;0.52;;;6.20;99.90;;;;;;5071808;28;20029;-43
2023/01/19 12:08:42;;;;;;;2.75;0.57;;;6.10;99.90;;;;;;5072956;28;20047;-43
2023/01/19 12:11:11;;;;;;;3.90;0.30;;;6.20;99.90;;;;;;5073137;28;20068;-45
2023/01/19 12:13:40;;;;;;;1.52;0.88;;;6.10;99.90;;;;;;5072818;28;20048;-41
2023/01/19 12:16:09;;;;;;;3.75;1.02;;;6.00;99.90;;;;;;5071927;28;20021;-41
2023/01/19 12:18:44;;;;;;;4.63;0.55;;;6.10;99.90;;;;;;5073850;28;20074;-41
2023/01/19 12:21:09;;;;;;;1.15;0.40;;;6.20;99.90;;;;;;5074088;28;20029;-43
2023/01/19 12:24:06;;;;;;;10.50;0.60;;;6.10;99.90;;;;;;5073120;28;20443;-34
2023/01/19 12:27:03;;;;;;;2.45;1.23;;;6.10;99.90;;;;;;5058255;28;20036;-36
2023/01/19 12:29:34;;;;;;;1.33;0.40;;;5.90;99.90;;;;;;5072534;28;20500;-36
2023/01/19 12:32:12;;;;;;;1.25;0.60;;;5.80;99.90;;;;;;5071688;28;20024;-36
2023/01/19 12:34:42;;;;;;;2.97;0.98;;;5.80;99.90;;;;;;5071812;28;20507;-38
2023/01/19 12:37:29;;;;;;;1.75;0.50;;;5.80;99.90;;;;;;5072631;28;20025;-36
2023/01/19 12:40:22;;;;;;;4.03;0.75;;;5.90;99.90;;;;;;5066572;28;20024;-36
2023/01/19 12:43:04;;;;;;;6.35;0.88;;;5.90;99.90;;;;;;5061578;28;20087;-41
2023/01/19 12:45:36;;;;;;;3.13;0.77;;;6.10;99.90;;;;;;5071301;28;20036;-37
2023/01/19 12:48:03;;;;;;;1.27;0.30;;;6.00;99.90;;;;;;5073604;28;20070;-37
2023/01/19 12:50:36;;;;;;;4.57;0.50;;;6.10;99.90;;;;;;5071192;28;20411;-38
2023/01/19 12:53:06;;;;;;;1.98;0.50;;;6.00;99.90;;;;;;5071902;28;20123;-34
2023/01/19 12:55:37;;;;;;;2.28;0.55;;;6.00;99.90;;;;;;5074139;28;20060;-37
2023/01/19 12:58:13;;;;;;;0.40;0.35;;;6.00;99.90;;;;;;5072332;28;20484;-35
2023/01/19 13:00:41;;;;;;;8.80;0.85;;;5.90;99.90;;;;;;5072604;28;20465;-38
2023/01/19 13:03:16;;;;;;;7.43;1.17;;;6.00;99.90;;;;;;5070761;28;20017;-34
2023/01/19 13:05:41;;;;;;;1.92;0.52;;;6.00;99.90;;;;;;5073035;28;20563;-37
2023/01/19 13:08:07;;;;;;;2.00;0.65;;;6.00;99.90;;;;;;5069934;28;20111;-42
2023/01/19 13:11:12;;;;;;;3.17;0.60;;;6.00;99.90;;;;;;5072676;28;20427;-38
2023/01/19 13:13:39;;;;;;;1.88;0.50;;;5.90;99.90;;;;;;5070581;28;20056;-39
2023/01/19 13:16:17;;;;;;;11.27;0.95;;;5.80;99.90;;;;;;5071860;28;20562;-36
2023/01/19 13:18:44;;;;;;;3.38;0.30;;;5.70;99.90;;;;;;5071526;28;20028;-34
2023/01/19 13:21:10;;;;;;;6.90;0.60;;;5.70;99.90;;;;;;5070976;28;20492;-37
2023/01/19 13:23:51;;;;;;;3.92;0.77;;;5.70;99.90;;;;;;5071688;28;20027;-34
2023/01/19 13:26:19;;;;;;;3.47;0.25;;;5.70;99.90;;;;;;5069719;28;20032;-40